Time;durP1;ratioP1;P1;durP2;ratioP2;P2;SDS_P1;SDS_P2;PMS_P1;PMS_P2;Temp;Humidity;BMP_temperature;BMP_pressure;BME280_temperature;BME280_humidity;BME280_pressure;Samples;Min_cycle;Max_cycle;Signal;HPM_P1;HPM_P2
2021/07/27 00:03:48;;;;;;;;;;;;;;;;;;;;;
2021/07/27 00:06:24;;;;;;;54.20;35.17;;;;;;;23.69;50.05;100856.94;5067852;28;20034;-74
2021/07/27 00:08:58;;;;;;;48.88;35.50;;;;;;;23.73;50.27;100861.22;5090954;28;20028;-74
2021/07/27 00:11:27;;;;;;;40.97;33.42;;;;;;;23.79;50.57;100859.16;5088489;28;20024;-71
2021/07/27 00:14:10;;;;;;;49.63;32.90;;;;;;;23.84;51.73;100858.06;5075100;28;20028;-74
2021/07/27 00:16:41;;;;;;;48.78;32.67;;;;;;;23.93;52.64;100860.31;5084623;28;20122;-72
2021/07/27 00:19:07;;;;;;;38.08;28.77;;;;;;;23.89;53.26;100862.25;5087629;28;20044;-73
2021/07/27 00:21:47;;;;;;;36.35;24.55;;;;;;;23.88;56.67;100857.84;5086826;28;20071;-74
2021/07/27 00:24:25;;;;;;;32.35;25.75;;;;;;;23.86;56.73;100859.72;5074634;28;20425;-73
2021/07/27 00:27:11;;;;;;;35.08;25.45;;;;;;;23.93;57.64;100857.63;5087951;28;20024;-73
2021/07/27 00:29:43;;;;;;;33.45;22.50;;;;;;;23.79;58.22;100851.13;5069437;28;20074;-74
2021/07/27 00:32:23;;;;;;;27.58;20.88;;;;;;;23.70;57.83;100856.88;5085158;28;20043;-74
2021/07/27 00:35:15;;;;;;;29.13;20.58;;;;;;;23.60;57.38;100858.28;5107173;22;20044;-74
2021/07/27 00:41:51;;;;;;;34.22;18.52;;;;;;;23.66;56.27;100854.41;4967774;28;20035;-75
2021/07/27 00:44:13;;;;;;;34.20;20.65;;;;;;;23.51;56.98;100847.97;5016952;28;20127;-74
2021/07/27 00:47:07;;;;;;;35.17;25.20;;;;;;;23.46;57.88;100860.69;5001212;28;20014;-75
2021/07/27 00:49:35;;;;;;;28.48;22.95;;;;;;;23.46;57.57;100861.59;4979948;28;20044;-75
2021/07/27 00:52:29;;;;;;;39.53;22.83;;;;;;;23.43;57.21;100861.72;5068311;22;20052;-74
2021/07/27 00:55:07;;;;;;;28.45;20.85;;;;;;;23.39;56.83;100870.84;5063822;28;20047;-74
2021/07/27 00:57:37;;;;;;;31.58;20.45;;;;;;;23.37;56.50;100870.91;5086816;28;20110;-74
2021/07/27 01:00:08;;;;;;;36.50;19.13;;;;;;;23.37;56.44;100870.06;5090541;28;20024;-72
2021/07/27 01:02:37;;;;;;;28.85;18.92;;;;;;;23.37;56.65;100860.19;5070910;28;20131;-73
2021/07/27 01:05:08;;;;;;;29.77;17.90;;;;;;;23.33;56.50;100850.56;5068895;28;20035;-73
2021/07/27 01:07:48;;;;;;;25.50;20.40;;;;;;;23.29;57.86;100845.41;5090207;28;20107;-74
2021/07/27 01:10:22;;;;;;;28.85;17.23;;;;;;;23.17;56.19;100846.84;5090331;28;20024;-73
2021/07/27 01:12:53;;;;;;;32.05;17.75;;;;;;;23.16;56.17;100861.19;5072688;28;20061;-74
2021/07/27 01:15:27;;;;;;;21.88;16.15;;;;;;;23.17;56.18;100855.75;5087574;28;20459;-75
2021/07/27 01:18:09;;;;;;;24.42;16.20;;;;;;;23.03;56.56;100849.28;5091285;28;20036;-75
2021/07/27 01:37:46;;;;;;;25.52;16.58;;;;;;;22.92;58.36;100839.91;5090635;28;20063;-73
2021/07/27 01:40:40;;;;;;;27.80;17.48;;;;;;;22.83;59.40;100834.06;5072447;28;20033;-74
2021/07/27 01:43:19;;;;;;;;;;;;;;;;;;;;;
2021/07/27 01:45:48;;;;;;;26.30;19.58;;;;;;;22.65;60.65;100833.09;5090330;28;20030;-74
2021/07/27 01:48:20;;;;;;;27.00;18.65;;;;;;;22.67;60.86;100839.25;5091078;28;20414;-74
2021/07/27 01:51:08;;;;;;;26.52;20.02;;;;;;;22.62;61.07;100839.44;5089384;28;20027;-74
2021/07/27 01:53:56;;;;;;;28.98;18.90;;;;;;;22.65;59.99;100843.78;5061085;28;20507;-76
2021/07/27 01:56:27;;;;;;;26.33;18.85;;;;;;;22.64;59.87;100847.38;5092386;28;20032;-76
2021/07/27 01:58:52;;;;;;;23.50;17.38;;;;;;;22.63;59.63;100851.00;5091735;28;20032;-76
2021/07/27 02:01:30;;;;;;;23.33;17.10;;;;;;;22.60;59.72;100856.50;5091103;28;20028;-75
2021/07/27 02:04:00;;;;;;;25.77;17.48;;;;;;;22.50;60.49;100856.00;5089457;28;20020;-72
2021/07/27 02:06:26;;;;;;;21.13;17.48;;;;;;;22.38;60.48;100856.50;5090560;28;20028;-73
2021/07/27 02:08:55;;;;;;;26.23;18.05;;;;;;;22.47;60.36;100851.66;5084768;28;20036;-73
2021/07/27 02:11:29;;;;;;;23.13;16.63;;;;;;;22.51;60.27;100863.97;5079552;28;20106;-74
2021/07/27 02:14:00;;;;;;;23.65;16.25;;;;;;;22.50;60.20;100856.88;5090747;28;20716;-74
2021/07/27 02:16:50;;;;;;;20.90;15.68;;;;;;;22.47;60.56;100857.00;5090860;28;20028;-74
2021/07/27 02:19:19;;;;;;;18.33;14.05;;;;;;;22.44;60.37;100850.91;5090859;28;20071;-73
2021/07/27 02:21:45;;;;;;;19.38;14.07;;;;;;;22.38;60.37;100856.50;5089246;28;20024;-74
2021/07/27 02:24:21;;;;;;;23.63;14.23;;;;;;;22.38;59.98;100845.81;5088155;28;20523;-74
2021/07/27 02:29:56;;;;;;;20.67;14.23;;;;;;;22.39;60.49;100843.09;5085541;28;20058;-74
2021/07/27 02:32:37;;;;;;;;;;;;;;;;;;;;;
2021/07/27 02:35:12;;;;;;;23.92;13.63;;;;;;;22.18;61.67;100835.94;5089858;28;20031;-75
2021/07/27 02:37:51;;;;;;;23.45;15.93;;;;;;;22.06;63.20;100843.53;5090702;28;20050;-77
2021/07/27 02:40:31;;;;;;;28.00;14.73;;;;;;;22.02;64.01;100843.72;5090137;28;20024;-76
2021/07/27 02:43:01;;;;;;;22.38;15.43;;;;;;;21.94;64.38;100838.69;5087770;28;20024;-76
2021/07/27 02:45:32;;;;;;;20.88;16.35;;;;;;;21.86;64.86;100838.97;5090690;28;20024;-76
2021/07/27 02:48:11;;;;;;;28.58;16.65;;;;;;;21.88;64.93;100839.78;5090422;28;20035;-76
2021/07/27 02:50:38;;;;;;;21.77;15.40;;;;;;;21.81;65.36;100837.44;5084914;28;20098;-74
2021/07/27 02:53:23;;;;;;;26.92;16.23;;;;;;;21.73;65.75;100844.84;5068934;28;20177;-75
2021/07/27 02:55:51;;;;;;;34.28;17.00;;;;;;;21.82;65.39;100844.50;5086267;28;20081;-75
2021/07/27 02:58:17;;;;;;;18.27;13.82;;;;;;;21.68;66.62;100840.59;5092416;28;20042;-76
2021/07/27 03:01:08;;;;;;;27.80;16.90;;;;;;;21.58;66.94;100843.66;5074633;28;20398;-75
2021/07/27 03:03:44;;;;;;;22.52;16.02;;;;;;;21.71;66.19;100853.81;5076108;28;20023;-76
2021/07/27 03:06:19;;;;;;;29.17;16.48;;;;;;;21.57;67.46;100847.28;5069875;28;20032;-76
2021/07/27 03:09:14;;;;;;;25.70;15.52;;;;;;;21.58;66.97;100836.53;5092775;28;20421;-77
2021/07/27 03:11:53;;;;;;;22.38;16.02;;;;;;;21.57;67.19;100837.47;5079000;28;20018;-76
2021/07/27 03:14:20;;;;;;;21.27;16.05;;;;;;;21.59;67.61;100848.09;5075985;28;20658;-76
2021/07/27 03:16:57;;;;;;;24.25;15.20;;;;;;;21.58;67.71;100851.69;5075449;28;20110;-73
2021/07/27 03:19:38;;;;;;;26.67;16.65;;;;;;;21.51;68.07;100848.38;5074536;28;20410;-73
2021/07/27 03:22:07;;;;;;;38.88;16.73;;;;;;;21.47;68.33;100858.31;5093955;28;20027;-76
2021/07/27 03:24:54;;;;;;;20.50;14.20;;;;;;;21.47;68.18;100862.78;5092343;28;20028;-75
2021/07/27 03:27:44;;;;;;;26.60;15.65;;;;;;;21.55;67.80;100867.84;5092736;28;20028;-74
2021/07/27 03:30:11;;;;;;;28.92;14.93;;;;;;;21.64;68.21;100871.03;5093472;28;20020;-76
2021/07/27 03:32:50;;;;;;;29.45;17.27;;;;;;;21.60;68.68;100865.84;5089722;28;20106;-75
2021/07/27 03:35:19;;;;;;;30.05;17.45;;;;;;;21.58;68.55;100862.38;5093447;28;20027;-75
2021/07/27 03:37:45;;;;;;;30.10;16.63;;;;;;;21.56;68.28;100865.09;5093577;28;20024;-75
2021/07/27 03:40:14;;;;;;;24.83;17.05;;;;;;;21.53;68.82;100857.19;5092696;28;20035;-74
2021/07/27 03:42:52;;;;;;;23.70;17.40;;;;;;;21.50;69.16;100858.19;5090381;28;20047;-75
2021/07/27 03:45:20;;;;;;;31.83;17.60;;;;;;;21.47;69.15;100857.47;5092189;28;20031;-75
2021/07/27 03:48:08;;;;;;;17.95;15.20;;;;;;;21.57;68.55;100860.63;5076359;28;20122;-76
2021/07/27 03:50:57;;;;;;;26.85;15.77;;;;;;;21.70;67.87;100867.22;5094323;28;20024;-75
2021/07/27 03:53:23;;;;;;;22.08;14.43;;;;;;;21.89;67.34;100867.38;5081248;28;20494;-76
2021/07/27 03:56:05;;;;;;;28.08;15.38;;;;;;;21.92;67.22;100868.13;5092572;28;20462;-74
2021/07/27 03:58:48;;;;;;;26.30;16.25;;;;;;;21.96;67.35;100865.31;5091461;28;20086;-76
2021/07/27 04:01:25;;;;;;;30.15;16.15;;;;;;;22.00;67.82;100851.78;5093239;28;20032;-75
2021/07/27 04:04:03;;;;;;;18.75;15.20;;;;;;;22.16;66.94;100859.19;5092312;28;20031;-77
2021/07/27 04:06:31;;;;;;;21.92;16.90;;;;;;;22.32;66.31;100858.53;5076200;28;20467;-75
2021/07/27 04:09:06;;;;;;;31.25;16.83;;;;;;;22.38;66.43;100854.72;5092095;28;20039;-75
2021/07/27 04:11:57;;;;;;;19.85;14.68;;;;;;;22.47;65.34;100854.31;5090892;28;20115;-78
2021/07/27 04:14:46;;;;;;;22.80;15.85;;;;;;;22.50;66.95;100854.22;5075300;28;20059;-78
2021/07/27 04:17:20;;;;;;;22.13;16.80;;;;;;;22.49;67.55;100855.13;5065168;28;20115;-77
2021/07/27 04:20:00;;;;;;;20.10;16.50;;;;;;;22.49;68.15;100852.44;5093427;28;20024;-75
2021/07/27 04:22:35;;;;;;;21.13;17.30;;;;;;;22.55;68.01;100854.00;5071151;28;20036;-74
2021/07/27 04:25:18;;;;;;;29.67;16.48;;;;;;;22.58;68.25;100847.66;5089517;28;20107;-76
2021/07/27 04:27:55;;;;;;;25.67;16.15;;;;;;;22.64;68.00;100842.03;5074951;28;20500;-73
2021/07/27 04:30:31;;;;;;;21.50;15.32;;;;;;;22.63;67.88;100834.94;5092058;28;20024;-74
2021/07/27 04:33:17;;;;;;;54.10;16.80;;;;;;;22.70;67.37;100823.91;5074363;28;20023;-73
2021/07/27 04:35:53;;;;;;;29.63;16.27;;;;;;;22.74;67.53;100833.53;5082055;28;20032;-73
2021/07/27 04:38:25;;;;;;;17.77;15.00;;;;;;;22.84;67.04;100842.03;5081097;28;20118;-74
2021/07/27 04:41:07;;;;;;;26.02;14.93;;;;;;;22.97;65.63;100845.91;5073342;28;20425;-89
2021/07/27 04:43:34;;;;;;;17.10;14.35;;;;;;;23.10;65.22;100851.59;5247107;22;20083;-77
2021/07/27 04:46:00;;;;;;;19.23;15.82;;;;;;;23.25;64.85;100852.75;5068148;28;20382;-79
2021/07/27 04:48:25;;;;;;;23.75;15.07;;;;;;;23.35;63.76;100855.84;5070108;28;20131;-77
2021/07/27 04:50:51;;;;;;;25.45;15.45;;;;;;;23.43;63.47;100855.50;5069685;28;20106;-77
2021/07/27 04:53:22;;;;;;;17.38;14.00;;;;;;;23.50;63.29;100859.63;5036309;28;20029;-78
2021/07/27 04:55:48;;;;;;;18.88;14.57;;;;;;;23.53;62.82;100855.00;5061614;28;20020;-78
2021/07/27 04:58:14;;;;;;;19.42;14.10;;;;;;;23.62;62.37;100860.84;5071061;28;20111;-78
2021/07/27 05:00:40;;;;;;;20.88;14.02;;;;;;;23.77;61.55;100861.03;5071432;28;20020;-78
2021/07/27 05:03:05;;;;;;;33.17;14.63;;;;;;;23.80;61.78;100860.00;5053128;28;20043;-78
2021/07/27 05:05:30;;;;;;;26.35;14.90;;;;;;;23.92;61.90;100866.59;5071643;28;20024;-77
2021/07/27 05:07:58;;;;;;;22.50;13.15;;;;;;;24.02;61.43;100863.41;5048572;28;20497;-77
2021/07/27 05:10:24;;;;;;;25.08;15.02;;;;;;;24.12;60.76;100858.47;5063336;28;20016;-78
2021/07/27 05:12:49;;;;;;;19.40;15.75;;;;;;;24.29;59.73;100865.66;5069635;28;20081;-78
2021/07/27 05:15:15;;;;;;;34.95;14.88;;;;;;;24.38;59.31;100861.66;5070047;28;20475;-79
2021/07/27 05:17:41;;;;;;;26.13;16.50;;;;;;;24.34;60.17;100863.59;5052149;28;20032;-79
2021/07/27 05:20:07;;;;;;;17.25;13.57;;;;;;;24.38;59.57;100869.69;5068698;28;20038;-79
2021/07/27 05:22:33;;;;;;;19.67;13.77;;;;;;;24.55;59.92;100874.25;5072360;28;20020;-80
2021/07/27 05:24:59;;;;;;;26.65;14.80;;;;;;;24.65;59.87;100862.06;5067142;28;20027;-79
2021/07/27 05:27:26;;;;;;;23.63;15.00;;;;;;;24.71;59.88;100861.78;5069003;28;20024;-79
2021/07/27 05:29:53;;;;;;;28.08;15.02;;;;;;;24.90;57.72;100863.50;5069106;28;20120;-79
2021/07/27 05:32:19;;;;;;;16.58;13.85;;;;;;;24.84;56.37;100862.88;5069179;28;20045;-78
2021/07/27 05:34:45;;;;;;;28.52;14.82;;;;;;;25.01;54.79;100861.13;5032177;28;20035;-78
2021/07/27 05:37:10;;;;;;;18.83;13.02;;;;;;;25.08;54.44;100867.03;5046709;28;20031;-79
2021/07/27 05:39:36;;;;;;;27.63;13.93;;;;;;;25.16;54.74;100864.78;5066834;28;20025;-79
2021/07/27 05:42:02;;;;;;;27.60;14.45;;;;;;;25.20;54.94;100858.34;5068797;28;20024;-79
2021/07/27 05:44:28;;;;;;;22.48;13.45;;;;;;;25.36;53.80;100855.72;5067781;28;20166;-79
2021/07/27 05:46:54;;;;;;;22.05;14.43;;;;;;;25.39;52.86;100856.38;5051307;28;20111;-79
2021/07/27 05:49:21;;;;;;;19.83;12.98;;;;;;;25.52;53.16;100858.38;5070242;28;20024;-80
2021/07/27 05:51:48;;;;;;;23.98;13.75;;;;;;;25.56;53.82;100852.75;5070390;28;20462;-79
2021/07/27 05:54:13;;;;;;;27.20;12.48;;;;;;;25.75;52.35;100855.28;5068411;28;20029;-78
2021/07/27 05:56:39;;;;;;;34.28;13.57;;;;;;;25.73;53.38;100859.91;5068721;28;20020;-79
2021/07/27 05:59:04;;;;;;;21.20;12.88;;;;;;;25.96;52.81;100861.31;5070331;28;20024;-77
2021/07/27 06:01:30;;;;;;;25.00;12.02;;;;;;;26.04;52.59;100855.50;5069266;28;20024;-77
2021/07/27 06:03:56;;;;;;;18.83;14.18;;;;;;;26.16;52.82;100848.53;5052594;28;20558;-75
2021/07/27 06:06:21;;;;;;;15.77;13.02;;;;;;;26.23;49.71;100853.47;5068442;28;20446;-68
2021/07/27 06:08:47;;;;;;;26.73;13.38;;;;;;;26.37;49.93;100849.97;5066577;28;20052;-68
2021/07/27 06:11:13;;;;;;;23.13;13.20;;;;;;;26.49;49.08;100854.63;5067448;28;20020;-67
2021/07/27 06:13:39;;;;;;;34.17;13.68;;;;;;;26.56;50.57;100854.28;5067074;28;20100;-68
2021/07/27 06:16:06;;;;;;;25.88;14.15;;;;;;;26.73;49.57;100857.69;5048797;28;20031;-70
2021/07/27 06:18:34;;;;;;;25.60;12.77;;;;;;;26.85;49.12;100869.53;5066294;28;20211;-68
2021/07/27 06:21:00;;;;;;;18.52;12.18;;;;;;;27.09;49.21;100860.91;5066747;28;20111;-68
2021/07/27 06:23:26;;;;;;;15.40;10.63;;;;;;;27.20;44.91;100868.38;5071154;28;20145;-68
2021/07/27 06:25:52;;;;;;;12.25;8.57;;;;;;;27.23;43.35;100860.97;5066852;28;20460;-70
2021/07/27 06:28:18;;;;;;;11.10;9.38;;;;;;;27.36;42.80;100869.16;5066308;28;20536;-73
2021/07/27 06:30:44;;;;;;;15.50;8.65;;;;;;;27.49;42.69;100861.16;5068171;28;20032;-68
2021/07/27 06:33:09;;;;;;;13.18;8.55;;;;;;;27.57;42.13;100862.38;5070255;28;20052;-78
2021/07/27 06:35:34;;;;;;;9.43;8.15;;;;;;;27.65;41.82;100855.63;5068755;28;20024;-75
2021/07/27 06:38:00;;;;;;;14.40;8.52;;;;;;;27.74;41.79;100863.13;5072567;28;20078;-77
2021/07/27 06:40:26;;;;;;;14.85;9.55;;;;;;;27.93;41.65;100865.53;5056822;28;20032;-77
2021/07/27 06:42:51;;;;;;;18.20;9.88;;;;;;;27.97;41.83;100858.97;5071328;28;20036;-77
2021/07/27 06:45:17;;;;;;;12.77;9.63;;;;;;;28.13;42.12;100865.06;5069251;28;20036;-78
2021/07/27 06:47:42;;;;;;;17.15;10.23;;;;;;;28.23;41.97;100873.41;5074554;28;20035;-78
2021/07/27 06:50:08;;;;;;;12.02;9.32;;;;;;;28.37;42.06;100869.81;5069241;28;20104;-77
2021/07/27 06:52:34;;;;;;;17.92;8.45;;;;;;;28.44;41.25;100863.00;5070390;28;20027;-78
2021/07/27 06:54:59;;;;;;;15.45;9.52;;;;;;;28.56;40.12;100855.94;5073044;28;20509;-77
2021/07/27 06:57:26;;;;;;;17.00;9.30;;;;;;;28.64;39.54;100850.91;5057063;28;20073;-77
2021/07/27 06:59:52;;;;;;;11.93;7.05;;;;;;;28.69;39.00;100861.38;5070989;28;20028;-77
2021/07/27 07:02:17;;;;;;;11.85;7.45;;;;;;;28.72;38.40;100853.06;5055820;28;20035;-78
2021/07/27 07:04:43;;;;;;;17.48;7.22;;;;;;;28.77;39.17;100856.31;5071230;28;20031;-77
2021/07/27 07:07:11;;;;;;;13.93;6.18;;;;;;;28.82;37.18;100854.13;5073344;28;20052;-77
2021/07/27 07:09:37;;;;;;;16.33;6.50;;;;;;;28.95;37.21;100854.16;5071845;28;20047;-78
2021/07/27 07:12:07;;;;;;;14.68;5.68;;;;;;;28.92;37.02;100865.19;5072665;28;20032;-77
2021/07/27 07:14:33;;;;;;;8.93;5.47;;;;;;;28.98;36.41;100875.56;5071567;28;20025;-77
2021/07/27 07:16:58;;;;;;;15.60;6.43;;;;;;;29.05;36.38;100872.31;5071359;28;20141;-78
2021/07/27 07:19:24;;;;;;;7.65;6.20;;;;;;;29.11;35.11;100867.50;5071341;28;20032;-78
2021/07/27 07:21:49;;;;;;;8.43;6.28;;;;;;;29.21;36.16;100868.56;5072141;28;20034;-77
2021/07/27 07:24:15;;;;;;;10.02;6.28;;;;;;;29.28;37.06;100866.31;5074256;28;20021;-77
2021/07/27 07:26:40;;;;;;;14.40;7.07;;;;;;;29.15;35.77;100867.19;5070284;28;20039;-77
2021/07/27 07:29:06;;;;;;;13.10;6.28;;;;;;;29.34;36.55;100866.72;5054338;28;20028;-78
2021/07/27 07:31:31;;;;;;;23.35;6.43;;;;;;;29.56;37.70;100865.19;5072836;28;20033;-78
2021/07/27 07:33:57;;;;;;;15.55;8.02;;;;;;;29.81;36.32;100867.00;5066171;28;20056;-79
2021/07/27 07:36:22;;;;;;;11.35;7.13;;;;;;;29.93;35.16;100857.97;5072951;28;20074;-78
2021/07/27 07:38:48;;;;;;;18.98;7.07;;;;;;;30.01;35.52;100866.34;5053057;28;20046;-78
2021/07/27 07:41:13;;;;;;;12.30;6.47;;;;;;;30.14;34.06;100865.47;5069582;28;20094;-72
2021/07/27 07:43:40;;;;;;;17.25;6.30;;;;;;;30.27;34.79;100866.28;5068123;28;20047;-71
2021/07/27 07:46:06;;;;;;;9.35;5.93;;;;;;;30.58;34.11;100859.41;5068509;28;20345;-71
2021/07/27 07:48:32;;;;;;;15.93;7.45;;;;;;;30.73;31.70;100860.06;5069617;28;20514;-71
2021/07/27 07:50:57;;;;;;;14.82;8.07;;;;;;;31.42;31.93;100861.91;5069383;28;20119;-71
2021/07/27 07:53:23;;;;;;;13.20;6.45;;;;;;;32.06;30.90;100867.53;5067700;28;20494;-72
2021/07/27 07:55:48;;;;;;;11.38;5.60;;;;;;;33.30;29.81;100863.31;5049585;28;20029;-71
2021/07/27 07:58:14;;;;;;;16.70;7.90;;;;;;;34.32;27.63;100864.03;5048753;28;20021;-71
2021/07/27 08:00:39;;;;;;;11.25;6.57;;;;;;;35.32;25.85;100849.09;5048180;28;20463;-72
2021/07/27 08:03:05;;;;;;;19.73;8.80;;;;;;;35.49;26.65;100859.22;5049246;28;20457;-72
2021/07/27 08:05:30;;;;;;;13.82;5.85;;;;;;;35.96;25.19;100854.66;5068950;28;20088;-72
2021/07/27 08:07:56;;;;;;;14.27;7.13;;;;;;;36.37;25.04;100861.44;5050726;28;20028;-72
2021/07/27 08:10:22;;;;;;;11.13;6.38;;;;;;;36.76;23.99;100861.97;5050707;28;20016;-72
2021/07/27 08:12:48;;;;;;;11.60;7.00;;;;;;;36.87;23.87;100871.78;5069062;28;20104;-71
2021/07/27 08:15:18;;;;;;;14.13;7.70;;;;;;;37.48;22.99;100863.59;5067655;28;20718;-71
2021/07/27 08:17:44;;;;;;;8.88;6.32;;;;;;;37.22;23.26;100867.22;5068717;28;20044;-71
2021/07/27 08:20:14;;;;;;;20.17;6.00;;;;;;;37.17;23.60;100875.06;5051516;28;20031;-69
2021/07/27 08:22:41;;;;;;;11.32;5.80;;;;;;;37.73;22.64;100870.06;5068673;28;20536;-70
2021/07/27 08:25:08;;;;;;;12.82;5.97;;;;;;;37.08;22.15;100863.22;5069694;28;20024;-71
2021/07/27 08:27:34;;;;;;;8.32;5.93;;;;;;;38.53;22.08;100859.44;5067380;28;20078;-70
2021/07/27 08:29:59;;;;;;;9.80;5.70;;;;;;;38.42;20.29;100862.50;5052559;28;20052;-70
2021/07/27 08:32:25;;;;;;;7.75;5.20;;;;;;;38.20;21.12;100859.41;5044509;28;20966;-70
2021/07/27 08:34:50;;;;;;;10.00;5.85;;;;;;;38.21;21.41;100858.38;5067951;28;20036;-70
2021/07/27 08:37:16;;;;;;;10.85;6.30;;;;;;;37.84;21.90;100864.28;5067497;28;20062;-78
2021/07/27 08:39:41;;;;;;;7.95;5.68;;;;;;;38.98;21.29;100866.28;5073290;28;20028;-77
2021/07/27 08:42:07;;;;;;;15.95;6.68;;;;;;;39.27;20.84;100862.09;5071116;28;20028;-77
2021/07/27 08:44:35;;;;;;;10.35;6.45;;;;;;;39.19;20.38;100859.38;5062266;28;20178;-77
2021/07/27 08:47:05;;;;;;;8.60;4.93;;;;;;;39.82;20.81;100860.34;5070877;28;20458;-77
2021/07/27 08:49:32;;;;;;;23.25;6.45;;;;;;;38.90;22.55;100866.28;5073453;28;20033;-78
2021/07/27 08:51:58;;;;;;;19.35;6.35;;;;;;;38.95;20.92;100863.03;5070466;28;20036;-80
2021/07/27 08:54:24;;;;;;;10.90;5.60;;;;;;;39.98;20.27;100863.00;5071115;28;20024;-80
2021/07/27 08:56:52;;;;;;;11.27;6.38;;;;;;;39.60;20.40;100859.25;5070947;28;20047;-79
2021/07/27 08:59:19;;;;;;;8.07;6.15;;;;;;;40.39;20.78;100856.38;5070473;28;20047;-80
2021/07/27 09:01:44;;;;;;;13.38;6.43;;;;;;;39.95;20.75;100849.63;5071127;28;20059;-79
2021/07/27 09:04:11;;;;;;;11.20;7.10;;;;;;;40.07;21.67;100847.31;5071038;28;20044;-79
2021/07/27 09:06:37;;;;;;;9.07;5.90;;;;;;;40.60;20.36;100851.03;5069921;28;20146;-79
2021/07/27 09:09:08;;;;;;;11.75;6.30;;;;;;;40.75;20.61;100850.25;5070727;28;20025;-79
2021/07/27 09:11:46;;;;;;;10.30;5.70;;;;;;;40.65;20.53;100850.50;5070955;28;20463;-78
2021/07/27 09:14:16;;;;;;;13.45;7.57;;;;;;;40.70;20.55;100848.06;5073292;28;20408;-79
2021/07/27 09:16:47;;;;;;;7.30;5.47;;;;;;;41.26;18.62;100845.75;5070049;28;20558;-77
2021/07/27 09:19:13;;;;;;;24.10;6.47;;;;;;;40.27;20.58;100842.19;5070986;28;20033;-77
2021/07/27 09:21:43;;;;;;;14.93;5.07;;;;;;;41.03;19.92;100839.44;5071348;28;20106;-80
2021/07/27 09:24:25;;;;;;;7.85;5.00;;;;;;;41.32;18.91;100846.88;5071375;28;20032;-79
2021/07/27 09:26:56;;;;;;;;;;;;;;;41.11;19.66;100844.84;5070933;28;20044;-79
2021/07/27 09:29:23;;;;;;;6.03;4.75;;;;;;;41.53;19.65;100835.91;5070769;28;19920;-80
2021/07/27 09:31:52;;;;;;;8.23;6.03;;;;;;;42.18;18.37;100836.91;5070266;28;20046;-79
2021/07/27 09:34:18;;;;;;;10.18;5.95;;;;;;;42.00;19.18;100832.91;5067268;28;20016;-76
2021/07/27 09:36:44;;;;;;;10.73;5.93;;;;;;;42.78;17.88;100829.16;5068839;28;20510;-77
2021/07/27 09:39:09;;;;;;;8.57;6.13;;;;;;;41.84;18.52;100834.81;5069407;28;20028;-78
2021/07/27 09:41:34;;;;;;;8.73;5.60;;;;;;;40.97;19.47;100819.03;5069546;28;20024;-77
2021/07/27 09:44:00;;;;;;;8.60;5.75;;;;;;;41.08;18.93;100821.31;5068166;28;20098;-78
2021/07/27 09:46:27;;;;;;;18.27;5.95;;;;;;;42.10;18.15;100825.13;5069090;28;20082;-78
2021/07/27 09:48:53;;;;;;;8.38;5.07;;;;;;;42.62;17.88;100820.34;5068857;28;20103;-78
2021/07/27 09:51:20;;;;;;;11.45;5.28;;;;;;;43.27;17.77;100819.09;5067322;28;20486;-78
2021/07/27 09:53:46;;;;;;;9.52;5.28;;;;;;;42.81;17.98;100822.41;5067964;28;20028;-78
2021/07/27 09:56:12;;;;;;;6.40;5.72;;;;;;;42.69;18.39;100812.97;5069164;28;20024;-78
2021/07/27 09:58:39;;;;;;;10.20;4.45;;;;;;;41.96;18.38;100813.16;5070159;28;20030;-78
2021/07/27 10:01:18;;;;;;;13.50;6.78;;;;;;;42.57;18.68;100813.50;5068373;28;20116;-78
2021/07/27 10:03:54;;;;;;;10.23;6.32;;;;;;;43.07;18.15;100815.34;5070013;28;20032;-78
2021/07/27 10:06:24;;;;;;;6.35;5.47;;;;;;;41.89;18.70;100815.81;5068993;28;20021;-78
2021/07/27 10:09:00;;;;;;;12.13;6.32;;;;;;;41.40;19.62;100810.97;5064668;28;20074;-78
2021/07/27 10:11:38;;;;;;;7.53;5.20;;;;;;;42.50;17.79;100809.84;5071600;28;20063;-77
2021/07/27 10:14:15;;;;;;;11.02;5.55;;;;;;;42.49;18.77;100810.88;5069655;28;20028;-77
2021/07/27 10:16:42;;;;;;;7.35;5.43;;;;;;;42.34;18.08;100810.09;5066219;28;20036;-77
2021/07/27 10:19:18;;;;;;;7.38;5.47;;;;;;;41.97;18.32;100812.94;5068707;28;20025;-78
2021/07/27 10:21:44;;;;;;;7.18;5.07;;;;;;;42.08;18.55;100813.47;5048953;28;20033;-78
2021/07/27 10:24:14;;;;;;;11.50;5.82;;;;;;;42.76;18.18;100811.09;5069715;28;20031;-77
2021/07/27 10:26:40;;;;;;;9.35;6.32;;;;;;;43.00;18.08;100807.00;5069794;28;20514;-78
2021/07/27 10:29:06;;;;;;;8.35;5.40;;;;;;;42.88;17.88;100812.25;5054286;28;20525;-78
2021/07/27 10:31:45;;;;;;;15.63;7.10;;;;;;;43.87;17.69;100811.00;5067283;28;20024;-77
2021/07/27 10:34:13;;;;;;;10.27;6.47;;;;;;;44.51;16.86;100815.16;5041891;28;20026;-78
2021/07/27 10:36:43;;;;;;;15.73;5.80;;;;;;;43.93;17.04;100801.03;5064321;28;20025;-78
2021/07/27 10:39:19;;;;;;;7.10;4.93;;;;;;;42.84;17.57;100810.94;5068177;28;21165;-77
2021/07/27 10:41:47;;;;;;;7.30;4.95;;;;;;;42.33;18.00;100805.63;5068184;28;20051;-78
2021/07/27 10:44:14;;;;;;;13.43;6.40;;;;;;;43.10;18.07;100796.44;5067725;28;20071;-78
2021/07/27 10:46:45;;;;;;;8.07;5.22;;;;;;;42.34;18.89;100799.91;5068595;28;20020;-78
2021/07/27 10:49:22;;;;;;;10.48;6.00;;;;;;;41.74;19.02;100801.19;5067859;28;20067;-79
2021/07/27 10:51:49;;;;;;;7.18;5.65;;;;;;;39.84;20.75;100793.16;5065668;28;20017;-79
2021/07/27 10:54:17;;;;;;;10.85;5.10;;;;;;;39.31;21.34;100797.53;5069721;28;20030;-78
2021/07/27 10:56:56;;;;;;;9.65;5.43;;;;;;;38.91;21.76;100799.34;5070640;28;20024;-78
2021/07/27 10:59:24;;;;;;;13.65;6.55;;;;;;;38.50;21.66;100790.38;5065324;28;20052;-77
2021/07/27 11:01:50;;;;;;;5.22;4.50;;;;;;;37.09;23.35;100790.19;5062978;28;20050;-77
2021/07/27 11:04:17;;;;;;;8.68;5.47;;;;;;;36.96;24.08;100785.97;5067989;28;20034;-77
2021/07/27 11:06:43;;;;;;;17.25;6.60;;;;;;;36.61;25.01;100775.19;5068710;28;20029;-78
2021/07/27 11:09:12;;;;;;;10.93;7.28;;;;;;;35.78;25.24;100773.59;5069992;28;20036;-79
2021/07/27 11:11:47;;;;;;;11.43;6.35;;;;;;;35.86;25.56;100767.34;5048498;28;20031;-77
2021/07/27 11:14:23;;;;;;;11.05;6.93;;;;;;;35.68;27.16;100759.13;5066211;28;20043;-78
2021/07/27 11:16:49;;;;;;;12.05;5.88;;;;;;;35.07;26.28;100761.47;5066456;28;20094;-79
2021/07/27 11:19:29;;;;;;;9.40;5.78;;;;;;;34.97;27.21;100755.16;5069782;28;20028;-78
2021/07/27 11:21:56;;;;;;;12.80;6.53;;;;;;;34.92;27.49;100754.75;5072712;28;20021;-78
2021/07/27 11:24:23;;;;;;;9.63;6.88;;;;;;;34.83;28.47;100751.06;5071789;28;20480;-77
2021/07/27 11:26:50;;;;;;;11.52;6.72;;;;;;;34.74;27.96;100737.47;5072813;28;20039;-80
2021/07/27 11:29:18;;;;;;;13.23;7.13;;;;;;;34.62;28.78;100745.81;5072948;28;20033;-78
2021/07/27 11:31:48;;;;;;;15.65;7.15;;;;;;;34.74;27.78;100746.50;5072312;28;20509;-77
2021/07/27 11:34:25;;;;;;;9.65;6.93;;;;;;;35.16;28.07;100750.66;5066174;28;20024;-78
2021/07/27 11:36:52;;;;;;;9.60;6.47;;;;;;;35.39;27.76;100754.69;5054629;28;20028;-78
2021/07/27 11:39:18;;;;;;;8.15;6.10;;;;;;;36.01;25.46;100751.25;5073648;28;20016;-79
2021/07/27 11:41:44;;;;;;;10.43;6.38;;;;;;;37.38;24.65;100748.72;5071592;28;20051;-78
2021/07/27 11:44:09;;;;;;;10.93;6.13;;;;;;;36.10;25.54;100743.00;5071926;28;20075;-77
2021/07/27 11:46:35;;;;;;;15.52;6.18;;;;;;;35.30;27.26;100741.97;5073307;28;20043;-79
2021/07/27 11:49:00;;;;;;;7.70;6.05;;;;;;;35.10;27.57;100741.19;5072196;28;20073;-79
2021/07/27 11:51:30;;;;;;;15.25;7.40;;;;;;;35.25;27.24;100744.28;5070937;28;20036;-79
2021/07/27 11:53:56;;;;;;;12.68;6.40;;;;;;;35.07;28.86;100739.63;5072098;28;20024;-78
2021/07/27 11:56:21;;;;;;;8.95;7.13;;;;;;;35.12;27.39;100727.41;5071580;28;20456;-78
2021/07/27 11:58:47;;;;;;;28.00;8.15;;;;;;;35.06;27.95;100732.44;5062239;28;20031;-78
2021/07/27 12:01:16;;;;;;;13.50;7.75;;;;;;;34.93;29.16;100725.63;5069908;28;20028;-77